createdAt,value
2018-09-20T00:02:31.265Z,3.83
2018-09-20T00:05:06.468Z,3.43
2018-09-20T00:07:41.627Z,3.73
2018-09-20T00:10:16.493Z,4.30
2018-09-20T00:12:51.635Z,3.60
2018-09-20T00:15:26.680Z,3.90
2018-09-20T00:18:01.704Z,3.73
2018-09-20T00:20:36.681Z,3.83
2018-09-20T00:23:11.920Z,3.93
2018-09-20T00:25:46.981Z,3.70
2018-09-20T00:28:22.097Z,3.80
2018-09-20T00:30:57.232Z,4.20
2018-09-20T00:33:32.386Z,3.33
2018-09-20T00:36:07.277Z,3.83
2018-09-20T00:38:42.387Z,3.93
2018-09-20T00:41:17.572Z,3.87
2018-09-20T00:43:52.540Z,4.00
2018-09-20T00:46:27.456Z,4.17
2018-09-20T00:49:02.512Z,3.77
2018-09-20T00:51:37.645Z,3.77
2018-09-20T00:54:12.705Z,4.43
2018-09-20T00:56:47.857Z,3.77
2018-09-20T00:59:23.176Z,4.10
2018-09-20T01:01:58.277Z,3.43
2018-09-20T01:04:33.580Z,4.00
2018-09-20T01:07:08.646Z,3.60
2018-09-20T01:09:50.488Z,3.93
2018-09-20T01:12:25.696Z,4.43
2018-09-20T01:15:00.716Z,3.47
2018-09-20T01:17:35.940Z,3.80
2018-09-20T01:20:11.123Z,4.00
2018-09-20T01:22:46.244Z,3.80
2018-09-20T01:25:21.256Z,4.20
2018-09-20T01:27:56.364Z,4.23
2018-09-20T01:30:31.444Z,4.10
2018-09-20T01:33:06.248Z,4.17
2018-09-20T01:35:41.430Z,4.03
2018-09-20T01:38:16.558Z,4.50
2018-09-20T01:40:51.689Z,4.07
2018-09-20T01:43:26.696Z,3.97
2018-09-20T01:46:01.812Z,3.90
2018-09-20T01:48:37.048Z,4.20
2018-09-20T01:51:12.228Z,4.23
2018-09-20T01:53:47.376Z,4.10
2018-09-20T01:56:22.529Z,3.80
2018-09-20T01:58:57.669Z,3.73
2018-09-20T02:01:32.709Z,3.87
2018-09-20T02:04:08.045Z,3.80
2018-09-20T02:06:43.200Z,3.93
2018-09-20T02:09:18.348Z,4.23
2018-09-20T02:11:53.544Z,3.90
2018-09-20T02:14:28.660Z,4.63
2018-09-20T02:17:03.813Z,4.77
2018-09-20T02:19:38.820Z,4.30
2018-09-20T02:22:13.949Z,4.10
2018-09-20T02:24:49.083Z,4.47
2018-09-20T02:27:24.210Z,4.30
2018-09-20T02:29:59.189Z,4.50
2018-09-20T02:32:34.236Z,4.53
2018-09-20T02:35:09.356Z,4.30
2018-09-20T02:37:44.521Z,4.10
2018-09-20T02:40:19.522Z,4.33
2018-09-20T02:42:54.661Z,4.10
2018-09-20T02:45:29.692Z,4.07
2018-09-20T02:48:04.815Z,4.07
2018-09-20T02:50:39.888Z,4.23
2018-09-20T02:53:15.118Z,4.03
2018-09-20T02:55:50.296Z,4.40
2018-09-20T02:58:25.436Z,4.20
2018-09-20T03:01:00.434Z,4.00
2018-09-20T03:03:35.560Z,4.00
2018-09-20T03:06:10.424Z,3.90
2018-09-20T03:08:45.657Z,4.33
2018-09-20T03:11:20.821Z,4.80
2018-09-20T03:13:56.005Z,4.13
2018-09-20T03:16:31.124Z,4.47
2018-09-20T03:19:06.608Z,4.23
2018-09-20T03:21:41.741Z,4.73
2018-09-20T03:24:16.880Z,4.57
2018-09-20T03:26:52.052Z,4.37
2018-09-20T03:29:27.032Z,4.90
2018-09-20T03:32:02.168Z,4.27
2018-09-20T03:34:37.268Z,4.47
2018-09-20T03:37:12.416Z,4.27
2018-09-20T03:39:47.372Z,4.30
2018-09-20T03:42:22.460Z,4.20
2018-09-20T03:44:57.548Z,4.30
2018-09-20T03:47:32.704Z,4.23
2018-09-20T03:50:08.300Z,4.60
2018-09-20T03:52:43.453Z,4.80
2018-09-20T03:55:18.537Z,4.73
2018-09-20T03:57:53.457Z,4.23
2018-09-20T04:00:28.553Z,5.20
2018-09-20T04:03:03.660Z,4.37
2018-09-20T04:05:38.609Z,4.20
2018-09-20T04:08:13.732Z,4.43
2018-09-20T04:10:48.905Z,5.10
2018-09-20T04:13:23.896Z,4.43
2018-09-20T04:15:59.080Z,4.50
2018-09-20T04:18:34.084Z,4.50
2018-09-20T04:21:09.287Z,4.27
2018-09-20T04:23:44.461Z,4.77
2018-09-20T04:26:19.499Z,4.17
2018-09-20T04:28:54.596Z,4.80
2018-09-20T04:31:30.282Z,4.03
2018-09-20T04:34:05.299Z,5.00
2018-09-20T04:36:40.454Z,5.20
2018-09-20T04:39:15.657Z,4.50
2018-09-20T04:41:50.748Z,4.63
2018-09-20T04:44:25.896Z,4.40
2018-09-20T04:47:01.008Z,5.03
2018-09-20T04:49:36.089Z,4.60
2018-09-20T04:52:11.245Z,4.50
2018-09-20T04:54:46.346Z,4.40
2018-09-20T04:57:21.476Z,4.33
2018-09-20T04:59:56.553Z,4.13
2018-09-20T05:02:31.573Z,4.57
2018-09-20T05:05:06.710Z,4.70
2018-09-20T05:07:41.684Z,4.47
2018-09-20T05:10:16.737Z,4.33
2018-09-20T05:12:51.908Z,4.73
2018-09-20T05:15:26.917Z,4.93
2018-09-20T05:18:02.002Z,5.13
2018-09-20T05:20:37.117Z,4.50
2018-09-20T05:23:12.514Z,4.47
2018-09-20T05:25:47.749Z,4.53
2018-09-20T05:28:22.893Z,4.70
2018-09-20T05:30:58.028Z,5.17
2018-09-20T05:33:33.244Z,4.87
2018-09-20T05:36:08.296Z,4.87
2018-09-20T05:38:43.400Z,3.97
2018-09-20T05:41:18.504Z,4.83
2018-09-20T05:43:53.705Z,4.63
2018-09-20T05:46:28.960Z,4.60
2018-09-20T05:49:03.989Z,5.20
2018-09-20T05:51:39.374Z,4.57
2018-09-20T05:54:14.503Z,4.90
2018-09-20T05:56:49.627Z,5.23
2018-09-20T05:59:24.841Z,5.17
2018-09-20T06:02:00.115Z,5.30
2018-09-20T06:04:35.340Z,4.57
2018-09-20T06:07:10.459Z,4.83
2018-09-20T06:09:45.471Z,4.63
2018-09-20T06:12:20.749Z,5.07
2018-09-20T06:14:55.965Z,4.83
2018-09-20T06:17:30.904Z,5.40
2018-09-20T06:20:06.140Z,4.63
2018-09-20T06:22:41.297Z,4.77
2018-09-20T06:25:16.399Z,4.57
2018-09-20T06:27:51.585Z,5.10
2018-09-20T06:30:26.586Z,4.83
2018-09-20T06:33:01.793Z,5.07
2018-09-20T06:35:36.978Z,5.10
2018-09-20T06:38:12.080Z,5.10
2018-09-20T06:40:47.144Z,5.27
2018-09-20T06:43:22.288Z,5.10
2018-09-20T06:45:57.336Z,5.17
2018-09-20T06:48:32.476Z,4.70
2018-09-20T06:51:07.644Z,5.37
2018-09-20T06:53:42.720Z,4.83
2018-09-20T06:56:18.060Z,5.27
2018-09-20T06:58:53.393Z,4.90
2018-09-20T07:01:28.580Z,5.27
2018-09-20T07:04:03.914Z,4.90
2018-09-20T07:06:38.865Z,4.80
2018-09-20T07:09:14.792Z,4.90
2018-09-20T07:11:50.024Z,5.27
2018-09-20T07:14:25.047Z,4.50
2018-09-20T07:17:00.273Z,5.63
2018-09-20T07:19:35.245Z,5.20
2018-09-20T07:22:10.472Z,4.93
2018-09-20T07:24:45.693Z,4.97
2018-09-20T07:27:20.784Z,4.87
2018-09-20T07:29:55.826Z,4.90
2018-09-20T07:32:30.945Z,4.77
2018-09-20T07:35:06.236Z,5.00
2018-09-20T07:37:41.427Z,5.53
2018-09-20T07:40:16.513Z,4.83
2018-09-20T07:42:51.668Z,4.63
2018-09-20T07:45:26.677Z,4.77
2018-09-20T07:48:01.720Z,4.97
2018-09-20T07:50:36.855Z,4.33
2018-09-20T07:53:12.020Z,4.93
2018-09-20T07:55:47.029Z,5.30
2018-09-20T07:58:22.180Z,4.47
2018-09-20T08:00:57.355Z,4.53
2018-09-20T08:03:32.844Z,4.90
2018-09-20T08:06:07.980Z,4.80
2018-09-20T08:08:43.049Z,4.50
2018-09-20T08:11:18.180Z,4.50
2018-09-20T08:13:53.327Z,4.63
2018-09-20T08:16:28.500Z,5.20
2018-09-20T08:19:03.664Z,4.93
2018-09-20T08:21:38.919Z,4.67
2018-09-20T08:24:14.093Z,4.57
2018-09-20T08:26:49.216Z,4.43
2018-09-20T08:29:24.405Z,4.40
2018-09-20T08:31:59.844Z,4.60
2018-09-20T08:34:34.921Z,5.50
2018-09-20T08:37:10.093Z,4.37
2018-09-20T08:39:45.216Z,5.23
2018-09-20T08:42:20.408Z,4.50
2018-09-20T08:44:55.433Z,5.00
2018-09-20T08:47:30.529Z,4.57
2018-09-20T08:50:06.137Z,4.83
2018-09-20T08:52:41.128Z,4.30
2018-09-20T08:55:16.217Z,4.33
2018-09-20T08:57:55.689Z,4.50
2018-09-20T09:00:30.619Z,4.50
2018-09-20T09:03:05.804Z,4.37
2018-09-20T09:05:40.833Z,4.70
2018-09-20T09:08:15.912Z,4.20
2018-09-20T09:10:50.906Z,4.58
2018-09-20T09:13:26.044Z,4.30
2018-09-20T09:16:01.164Z,3.70
2018-09-20T09:18:36.100Z,3.60
2018-09-20T09:21:11.168Z,3.85
2018-09-20T09:23:46.438Z,3.80
2018-09-20T09:26:21.470Z,3.55
2018-09-20T09:28:56.632Z,3.90
2018-09-20T09:31:31.733Z,3.92
2018-09-20T09:34:06.904Z,3.85
2018-09-20T09:36:41.900Z,4.03
2018-09-20T09:39:16.855Z,4.00
2018-09-20T09:41:51.972Z,4.15
2018-09-20T09:44:26.980Z,4.28
2018-09-20T09:47:01.893Z,3.95
2018-09-20T09:49:36.893Z,4.20
2018-09-20T09:52:11.961Z,4.58
2018-09-20T09:54:47.034Z,4.37
2018-09-20T09:57:22.073Z,4.03
2018-09-20T09:59:57.232Z,4.08
2018-09-20T10:02:32.340Z,4.47
2018-09-20T10:05:07.505Z,4.47
2018-09-20T10:07:42.629Z,4.53
2018-09-20T10:10:17.752Z,4.45
2018-09-20T10:12:52.813Z,3.80
2018-09-20T10:15:27.929Z,4.60
2018-09-20T10:18:03.098Z,4.70
2018-09-20T10:20:38.185Z,4.92
2018-09-20T10:23:13.225Z,4.67
2018-09-20T10:25:48.429Z,4.30
2018-09-20T10:28:23.611Z,4.47
2018-09-20T10:30:58.689Z,4.67
2018-09-20T10:33:33.644Z,4.03
2018-09-20T10:36:08.717Z,4.08
2018-09-20T10:38:43.820Z,5.00
2018-09-20T10:41:19.000Z,4.10
2018-09-20T10:43:54.061Z,4.37
2018-09-20T10:46:29.064Z,4.20
2018-09-20T10:49:04.207Z,4.45
2018-09-20T10:51:39.365Z,3.90
2018-09-20T10:54:14.486Z,3.55
2018-09-20T10:56:49.546Z,3.65
2018-09-20T10:59:24.510Z,3.15
2018-09-20T11:01:59.651Z,3.85
2018-09-20T11:04:34.772Z,3.72
2018-09-20T11:07:09.881Z,3.50
2018-09-20T11:09:44.894Z,3.58
2018-09-20T11:12:19.856Z,3.98
2018-09-20T11:14:55.044Z,3.60
2018-09-20T11:17:30.178Z,3.60
2018-09-20T11:20:05.724Z,3.20
2018-09-20T11:22:40.729Z,3.67
2018-09-20T11:25:15.928Z,3.15
2018-09-20T11:27:51.120Z,3.62
2018-09-20T11:30:26.344Z,3.60
2018-09-20T11:33:01.304Z,3.80
2018-09-20T11:35:36.396Z,3.52
2018-09-20T11:38:11.484Z,3.30
2018-09-20T11:40:46.656Z,3.80
2018-09-20T11:43:21.652Z,3.30
2018-09-20T11:45:56.810Z,3.52
2018-09-20T11:48:31.956Z,3.52
2018-09-20T11:51:48.443Z,3.67
2018-09-20T11:54:23.541Z,3.42
2018-09-20T11:56:58.661Z,3.52
2018-09-20T11:59:33.787Z,3.87
2018-09-20T12:02:08.913Z,3.80
2018-09-20T12:04:43.903Z,3.70
2018-09-20T12:07:19.308Z,3.27
2018-09-20T12:09:54.391Z,3.65
2018-09-20T12:12:29.605Z,3.58
2018-09-20T12:15:04.808Z,4.10
2018-09-20T12:17:39.972Z,3.60
2018-09-20T12:20:15.104Z,3.80
2018-09-20T12:22:50.292Z,3.77
2018-09-20T12:25:25.424Z,4.03
2018-09-20T12:28:00.521Z,3.62
2018-09-20T12:30:35.651Z,4.42
2018-09-20T12:33:10.780Z,4.47
2018-09-20T12:35:45.948Z,4.35
2018-09-20T12:38:20.895Z,4.47
2018-09-20T12:40:55.877Z,4.87
2018-09-20T12:43:30.793Z,5.37
2018-09-20T12:46:05.760Z,4.75
2018-09-20T12:48:40.704Z,4.70
2018-09-20T12:51:15.607Z,4.70
2018-09-20T12:53:50.596Z,5.08
2018-09-20T12:56:25.580Z,4.45
2018-09-20T12:59:00.732Z,3.98
2018-09-20T13:01:35.740Z,4.47
2018-09-20T13:04:10.920Z,4.20
2018-09-20T13:06:46.026Z,3.65
2018-09-20T13:09:21.177Z,3.90
2018-09-20T13:11:56.173Z,3.70
2018-09-20T13:14:31.236Z,3.50
2018-09-20T13:17:07.084Z,3.42
2018-09-20T13:19:42.230Z,3.50
2018-09-20T13:22:17.259Z,3.65
2018-09-20T13:24:52.432Z,3.52
2018-09-20T13:27:27.581Z,2.98
2018-09-20T13:30:02.629Z,3.20
2018-09-20T13:32:37.629Z,3.37
2018-09-20T13:35:12.690Z,2.95
2018-09-20T13:37:47.794Z,3.47
2018-09-20T13:40:23.013Z,3.58
2018-09-20T13:42:58.101Z,3.62
2018-09-20T13:45:33.313Z,3.70
2018-09-20T13:48:08.378Z,3.12
2018-09-20T13:50:43.470Z,3.27
2018-09-20T13:53:18.565Z,3.33
2018-09-20T13:55:53.697Z,3.25
2018-09-20T13:58:28.797Z,3.30
2018-09-20T14:01:04.033Z,3.17
2018-09-20T14:03:39.052Z,3.45
2018-09-20T14:06:14.591Z,3.37
2018-09-20T14:08:49.529Z,3.80
2018-09-20T14:11:24.503Z,3.17
2018-09-20T14:13:59.576Z,3.42
2018-09-20T14:16:34.681Z,2.95
2018-09-20T14:19:09.780Z,2.70
2018-09-20T14:21:44.906Z,3.08
2018-09-20T14:24:20.018Z,2.77
2018-09-20T14:26:55.073Z,2.45
2018-09-20T14:29:30.178Z,3.50
2018-09-20T14:32:05.291Z,2.98
2018-09-20T14:34:40.412Z,2.62
2018-09-20T14:37:15.381Z,2.70
2018-09-20T14:39:50.465Z,2.90
2018-09-20T14:42:26.129Z,2.52
2018-09-20T14:45:01.218Z,2.83
2018-09-20T14:47:36.087Z,2.70
2018-09-20T14:50:11.285Z,2.85
2018-09-20T14:52:46.250Z,2.80
2018-09-20T14:55:21.393Z,2.65
2018-09-20T14:57:56.483Z,2.95
2018-09-20T15:00:31.552Z,3.40
2018-09-20T15:03:06.626Z,2.72
2018-09-20T15:05:41.562Z,2.77
2018-09-20T15:08:17.007Z,2.58
2018-09-20T15:10:52.060Z,2.98
2018-09-20T15:13:26.958Z,2.75
2018-09-20T15:16:02.041Z,2.40
2018-09-20T15:18:37.284Z,2.83
2018-09-20T15:21:12.300Z,2.50
2018-09-20T15:23:47.445Z,2.72
2018-09-20T15:26:22.804Z,2.90
2018-09-20T15:28:57.952Z,2.40
2018-09-20T15:31:33.064Z,2.80
2018-09-20T15:34:08.532Z,2.47
2018-09-20T15:36:43.638Z,2.62
2018-09-20T15:39:18.617Z,2.22
2018-09-20T15:41:53.760Z,2.62
2018-09-20T15:44:28.955Z,2.75
2018-09-20T15:47:04.089Z,2.98
2018-09-20T15:49:38.946Z,2.58
2018-09-20T15:52:14.105Z,2.70
2018-09-20T15:54:49.214Z,2.25
2018-09-20T15:57:24.204Z,2.40
2018-09-20T15:59:59.344Z,2.40
2018-09-20T16:02:34.457Z,2.10
2018-09-20T16:05:09.637Z,2.40
2018-09-20T16:07:44.632Z,2.55
2018-09-20T16:10:19.786Z,2.52
2018-09-20T16:12:54.901Z,2.27
2018-09-20T16:15:30.027Z,2.15
2018-09-20T16:18:05.031Z,2.25
2018-09-20T16:20:40.186Z,2.27
2018-09-20T16:23:15.313Z,2.55
2018-09-20T16:25:50.481Z,2.08
2018-09-20T16:28:37.684Z,2.65
2018-09-20T16:31:26.300Z,2.70
2018-09-20T16:34:26.204Z,2.35
2018-09-20T16:37:11.903Z,2.45
2018-09-20T16:39:48.732Z,2.37
2018-09-20T16:42:26.400Z,2.55
2018-09-20T16:45:01.339Z,2.65
2018-09-20T16:47:36.436Z,2.60
2018-09-20T16:50:11.444Z,2.22
2018-09-20T16:52:46.590Z,10.23
2018-09-20T16:55:21.638Z,11.83
2018-09-20T16:57:56.898Z,3.55
2018-09-20T17:00:31.908Z,3.22
2018-09-20T17:03:07.081Z,3.33
2018-09-20T17:05:42.257Z,2.47
2018-09-20T17:08:17.240Z,2.80
2018-09-20T17:10:52.316Z,2.20
2018-09-20T17:13:27.440Z,2.80
2018-09-20T17:16:02.509Z,3.15
2018-09-20T17:18:37.569Z,2.65
2018-09-20T17:21:12.681Z,2.95
2018-09-20T17:23:47.661Z,5.53
2018-09-20T17:26:22.829Z,2.92
2018-09-20T17:28:57.882Z,2.45
2018-09-20T17:31:32.869Z,2.87
2018-09-20T17:34:07.985Z,2.27
2018-09-20T17:36:43.518Z,2.55
2018-09-20T17:39:19.627Z,2.60
2018-09-20T17:41:56.665Z,2.85
2018-09-20T17:44:31.660Z,2.62
2018-09-20T17:47:06.721Z,2.98
2018-09-20T17:49:41.710Z,2.80
2018-09-20T17:52:17.112Z,2.62
2018-09-20T17:54:52.750Z,3.27
2018-09-20T17:57:28.504Z,2.55
2018-09-20T18:00:03.505Z,3.05
2018-09-20T18:02:38.589Z,3.50
2018-09-20T18:05:13.550Z,3.25
2018-09-20T18:07:48.764Z,3.08
2018-09-20T18:10:23.909Z,3.10
2018-09-20T18:12:58.869Z,2.70
2018-09-20T18:15:33.981Z,3.00
2018-09-20T18:18:09.183Z,2.62
2018-09-20T18:20:44.240Z,2.70
2018-09-20T18:23:19.237Z,2.55
2018-09-20T18:25:54.307Z,2.70
2018-09-20T18:28:29.464Z,2.70
2018-09-20T18:31:04.590Z,2.52
2018-09-20T18:33:39.720Z,2.80
2018-09-20T18:36:14.776Z,2.98
2018-09-20T18:38:50.009Z,2.75
2018-09-20T18:41:25.142Z,2.80
2018-09-20T18:44:00.277Z,2.30
2018-09-20T18:46:35.281Z,3.30
2018-09-20T18:49:10.202Z,3.03
2018-09-20T18:51:45.250Z,2.60
2018-09-20T18:54:20.260Z,3.20
2018-09-20T18:56:55.418Z,3.25
2018-09-20T18:59:30.284Z,2.83
2018-09-20T19:02:05.373Z,2.80
2018-09-20T19:04:40.509Z,3.45
2018-09-20T19:07:15.453Z,2.90
2018-09-20T19:09:50.610Z,3.15
2018-09-20T19:12:25.724Z,2.70
2018-09-20T19:15:00.764Z,3.10
2018-09-20T19:17:35.741Z,2.87
2018-09-20T19:20:10.817Z,2.90
2018-09-20T19:22:45.968Z,2.95
2018-09-20T19:25:21.429Z,3.53
2018-09-20T19:27:56.393Z,2.77
2018-09-20T19:30:31.575Z,2.97
2018-09-20T19:33:06.575Z,3.33
2018-09-20T19:35:41.680Z,2.87
2018-09-20T19:38:16.749Z,2.90
2018-09-20T19:40:51.826Z,2.80
2018-09-20T19:43:26.984Z,3.83
2018-09-20T19:46:01.997Z,2.90
2018-09-20T19:48:37.212Z,3.30
2018-09-20T19:51:12.328Z,3.40
2018-09-20T19:53:47.456Z,3.60
2018-09-20T19:56:22.694Z,3.17
2018-09-20T19:58:58.169Z,3.23
2018-09-20T20:01:33.352Z,3.40
2018-09-20T20:04:08.465Z,3.90
2018-09-20T20:06:43.576Z,3.10
2018-09-20T20:09:18.633Z,2.67
2018-09-20T20:11:53.642Z,3.00
2018-09-20T20:14:28.569Z,3.70
2018-09-20T20:17:03.703Z,3.20
2018-09-20T20:19:38.803Z,2.80
2018-09-20T20:22:13.857Z,2.60
2018-09-20T20:24:48.778Z,3.10
2018-09-20T20:27:23.841Z,3.23
2018-09-20T20:29:58.981Z,3.27
2018-09-20T20:32:34.108Z,3.13
2018-09-20T20:35:09.290Z,2.80
2018-09-20T20:37:44.416Z,3.07
2018-09-20T20:40:19.592Z,3.40
2018-09-20T20:42:54.707Z,3.33
2018-09-20T20:45:29.854Z,3.07
2018-09-20T20:48:11.280Z,3.20
2018-09-20T20:50:46.480Z,3.37
2018-09-20T20:53:21.529Z,3.47
2018-09-20T20:55:56.683Z,2.90
2018-09-20T20:58:31.799Z,3.20
2018-09-20T21:01:06.877Z,4.20
2018-09-20T21:03:42.141Z,3.50
2018-09-20T21:06:17.749Z,3.23
2018-09-20T21:08:52.867Z,3.50
2018-09-20T21:11:27.969Z,3.17
2018-09-20T21:14:02.868Z,3.20
2018-09-20T21:16:37.976Z,3.57
2018-09-20T21:19:13.093Z,3.43
2018-09-20T21:21:48.097Z,3.57
2018-09-20T21:24:22.966Z,3.60
2018-09-20T21:26:58.025Z,3.50
2018-09-20T21:29:33.132Z,3.33
2018-09-20T21:32:08.213Z,3.80
2018-09-20T21:34:43.325Z,3.97
2018-09-20T21:37:18.484Z,3.60
2018-09-20T21:39:53.712Z,3.70
2018-09-20T21:42:28.665Z,3.73
2018-09-20T21:45:03.845Z,3.20
2018-09-20T21:47:38.980Z,3.50
2018-09-20T21:50:14.033Z,3.93
2018-09-20T21:52:49.253Z,3.37
2018-09-20T21:55:24.393Z,3.20
2018-09-20T21:57:59.305Z,3.13
2018-09-20T22:00:34.309Z,3.60
2018-09-20T22:03:09.529Z,3.13
2018-09-20T22:05:44.531Z,3.33
2018-09-20T22:08:19.668Z,3.67
2018-09-20T22:10:54.785Z,3.27
2018-09-20T22:13:29.864Z,3.43
2018-09-20T22:16:05.090Z,3.43
2018-09-20T22:18:40.092Z,3.57
2018-09-20T22:21:15.054Z,3.57
2018-09-20T22:23:50.197Z,3.83
2018-09-20T22:26:25.492Z,3.50
2018-09-20T22:29:00.621Z,3.53
2018-09-20T22:31:35.708Z,3.03
2018-09-20T22:34:10.810Z,3.43
2018-09-20T22:36:45.717Z,3.50
2018-09-20T22:39:20.908Z,3.00
2018-09-20T22:41:56.064Z,3.33
2018-09-20T22:44:31.220Z,3.27
2018-09-20T22:47:06.651Z,3.17
2018-09-20T22:49:41.790Z,3.33
2018-09-20T22:52:16.881Z,3.40
2018-09-20T22:54:52.051Z,3.70
2018-09-20T22:57:27.140Z,3.37
2018-09-20T23:00:02.185Z,3.60
2018-09-20T23:02:37.288Z,3.53
2018-09-20T23:05:12.552Z,3.70
2018-09-20T23:07:47.693Z,3.40
2018-09-20T23:10:22.889Z,3.60
2018-09-20T23:12:58.008Z,3.30
2018-09-20T23:15:33.133Z,3.53
2018-09-20T23:18:08.248Z,3.27
2018-09-20T23:20:43.776Z,3.47
2018-09-20T23:23:18.908Z,3.40
2018-09-20T23:25:53.956Z,3.80
2018-09-20T23:28:29.083Z,3.33
2018-09-20T23:31:04.256Z,3.33
2018-09-20T23:33:39.232Z,3.30
2018-09-20T23:36:14.324Z,4.20
2018-09-20T23:38:49.491Z,3.20
2018-09-20T23:41:24.649Z,3.80
2018-09-20T23:43:59.795Z,3.40
2018-09-20T23:46:34.908Z,3.80
2018-09-20T23:49:10.099Z,3.43
2018-09-20T23:51:45.234Z,3.77
2018-09-20T23:54:20.285Z,3.80
2018-09-20T23:56:55.421Z,3.10
2018-09-20T23:59:30.362Z,3.57
